Terminal Aerodrome Forecast
Issued by NWS Omaha/Valley, NE

Home | Current Version | Previous Version | Graphics & Text | Print | Product List | Glossary On
Versions: 1 2 3 4 5 6 7 8 9 10 11 12 13 14 15
000
FTUS43 KOAX 280520
TAFOFK
TAF
KOFK 280520Z 2806/2906 03011KT P6SM VCSH OVC004
     FM281000 35010KT P6SM VCSH OVC005
     FM281800 34008KT P6SM OVC025
     FM290000 36007KT P6SM OVC050=

USA.gov is the U.S. government's official web portal to all federal, state and local government web resources and services.